createdAt,value
2018-09-21T18:01:02.411Z,43.54
2018-09-21T18:03:31.013Z,44.71
2018-09-21T18:05:59.659Z,44.82
2018-09-21T18:08:28.148Z,45.68
2018-09-21T18:10:56.964Z,46.13
2018-09-21T18:13:25.457Z,46.38
2018-09-21T18:15:54.914Z,46.98
2018-09-21T18:18:23.326Z,46.97
2018-09-21T18:20:51.815Z,47.62
2018-09-21T18:23:21.016Z,47.30
2018-09-21T18:25:49.932Z,47.78
2018-09-21T18:28:18.573Z,48.02
2018-09-21T18:30:47.106Z,48.35
2018-09-21T18:33:16.728Z,48.15
2018-09-21T18:35:45.387Z,48.89
2018-09-21T18:38:14.850Z,48.19
2018-09-21T18:40:43.696Z,49.23
2018-09-21T18:43:12.492Z,49.10
2018-09-21T18:45:41.774Z,49.30
2018-09-21T18:48:10.734Z,49.62
2018-09-21T18:50:39.652Z,50.15
2018-09-21T18:53:08.360Z,50.01
2018-09-21T18:55:38.316Z,49.90
2018-09-21T18:58:07.460Z,50.25
2018-09-21T19:00:36.668Z,50.05
2018-09-21T19:03:05.755Z,50.76
2018-09-21T19:05:35.173Z,51.17
2018-09-21T19:08:04.424Z,51.18
2018-09-21T19:10:33.371Z,50.45
2018-09-21T19:13:02.146Z,51.29
2018-09-21T19:15:31.118Z,51.06
2018-09-21T19:18:17.659Z,50.48
2018-09-21T19:21:03.047Z,51.12
2018-09-21T19:23:36.727Z,51.06
2018-09-21T19:29:09.805Z,51.31
2018-09-21T19:31:40.158Z,50.98
2018-09-21T19:34:16.179Z,50.65
2018-09-21T19:36:51.427Z,50.94
2018-09-21T19:39:25.662Z,51.06
2018-09-21T19:42:03.962Z,51.11
2018-09-21T19:44:37.916Z,51.04
2018-09-21T19:47:15.372Z,50.86
2018-09-21T19:49:48.580Z,50.28
2018-09-21T19:52:24.680Z,49.91
2018-09-21T19:54:59.287Z,50.48
2018-09-21T20:14:44.332Z,51.94
2018-09-21T20:20:27.769Z,52.08
2018-09-21T20:23:00.692Z,52.36
2018-09-21T20:25:36.045Z,52.26
2018-09-21T20:28:13.744Z,52.96
2018-09-21T20:30:55.357Z,52.69
2018-09-21T20:33:31.564Z,52.97
2018-09-21T20:36:00.361Z,53.44
2018-09-21T20:38:29.935Z,53.81
2018-09-21T20:40:59.005Z,53.96
2018-09-21T20:43:27.764Z,54.09
2018-09-21T20:45:57.032Z,54.90
2018-09-21T20:48:25.684Z,54.49
2018-09-21T20:50:54.399Z,55.35
2018-09-21T20:53:25.002Z,55.59
2018-09-21T20:55:54.523Z,55.69
2018-09-21T20:58:23.101Z,56.22
2018-09-21T21:00:51.729Z,56.41
2018-09-21T21:03:21.271Z,56.42
2018-09-21T21:05:49.875Z,57.06
2018-09-21T21:08:18.575Z,56.71
2018-09-21T21:10:47.216Z,56.97
2018-09-21T21:13:16.074Z,56.93
2018-09-21T21:15:44.966Z,57.42
2018-09-21T21:18:13.769Z,57.44
2018-09-21T21:20:42.483Z,57.97
2018-09-21T21:23:11.731Z,57.72
2018-09-21T21:28:08.192Z,58.11
2018-09-21T21:30:37.697Z,58.31
2018-09-21T21:33:07.354Z,58.74
2018-09-21T21:35:36.170Z,58.50
2018-09-21T21:38:04.640Z,59.11
2018-09-21T21:40:33.434Z,59.68
2018-09-21T21:43:02.009Z,59.35
2018-09-21T21:45:30.699Z,59.83
2018-09-21T21:48:00.283Z,59.82
2018-09-21T21:50:29.269Z,60.14
2018-09-21T21:52:58.018Z,59.92
2018-09-21T21:55:27.288Z,59.94
2018-09-21T21:57:55.840Z,60.43
2018-09-21T22:00:28.270Z,60.25
2018-09-21T22:02:56.832Z,60.31
2018-09-21T22:05:25.506Z,60.88
2018-09-21T22:07:54.254Z,60.67
2018-09-21T22:10:22.720Z,60.83
2018-09-21T22:12:56.880Z,60.72
2018-09-21T22:15:25.769Z,60.73
2018-09-21T22:17:54.484Z,60.73
2018-09-21T22:20:22.987Z,60.67
2018-09-21T22:22:52.180Z,60.98
2018-09-21T22:25:20.639Z,60.94
2018-09-21T22:27:49.487Z,61.44
2018-09-21T22:30:17.989Z,61.50
2018-09-21T22:32:46.772Z,61.35
2018-09-21T22:35:15.503Z,61.44
2018-09-21T22:37:44.092Z,61.52
2018-09-21T22:40:12.744Z,61.59
2018-09-21T22:42:41.926Z,61.24
2018-09-21T22:45:10.773Z,61.61
2018-09-21T22:47:39.337Z,61.91
2018-09-21T22:50:07.810Z,61.93
2018-09-21T22:52:36.398Z,61.76
2018-09-21T22:55:05.556Z,62.02
2018-09-21T22:57:34.020Z,61.87
2018-09-21T23:00:02.604Z,62.00
2018-09-21T23:02:31.321Z,62.58
2018-09-21T23:04:59.767Z,62.33
2018-09-21T23:07:28.347Z,61.85
2018-09-21T23:09:56.945Z,62.10
2018-09-21T23:12:25.825Z,62.31
2018-09-21T23:14:54.461Z,61.91
2018-09-21T23:17:23.053Z,62.50
2018-09-21T23:19:51.527Z,61.87
2018-09-21T23:22:21.143Z,61.99
2018-09-21T23:24:49.821Z,62.34
2018-09-21T23:27:18.406Z,62.22
2018-09-21T23:29:46.853Z,62.07
2018-09-21T23:32:16.081Z,62.78
2018-09-21T23:34:44.851Z,64.31
2018-09-21T23:37:13.305Z,64.04
2018-09-21T23:39:41.801Z,64.71
2018-09-21T23:42:10.506Z,64.53
2018-09-21T23:44:39.356Z,64.59
2018-09-21T23:47:08.008Z,64.92
2018-09-21T23:49:36.584Z,65.04
2018-09-21T23:52:05.505Z,64.82
2018-09-21T23:54:34.030Z,64.52
2018-09-21T23:57:10.075Z,64.47
2018-09-21T23:59:38.793Z,64.74
